Aviation Digital Data Service (ADDS)

Output produced by METARs form (0346 UTC 26 April 2019)
found at http://www.aviationweather.gov/metar/data/
 
Forecast for: VVCT (CAN THO , VN)
Text: TAF VVCT 252300Z 2600/2624 VRB03KT 9999 FEW017
Forecast period: 0000 to 0200 UTC 26 April 2019
Forecast type: FROM: standard forecast or significant change
Winds: variable direction winds at 3 MPH (3 knots; 1.5 m/s)
Visibility: 6 or more miles 10+ km)
Ceiling: at least 12,000 feet AGL
Clouds: few clouds at 1700 feet AGL
Weather: no significant weather forecast for this period
Text: BECMG 2602/2603 12010KT
Forecast period: 0200 UTC 26 April 2019 to 0000 UTC 27 April 2019
Forecast type: BECOMING: Conditions expected to become as follows by 0300 UTC 26 April 2019
Winds: from the ESE (120 degrees) at 12 MPH (10 knots; 5.1 m/s)
Visibility: 6 or more miles 10+ km)
Ceiling: at least 12,000 feet AGL
Clouds: few clouds at 1700 feet AGL
Weather: no significant weather forecast for this period